Time;durP1;ratioP1;P1;durP2;ratioP2;P2;SDS_P1;SDS_P2;PMS_P1;PMS_P2;Temp;Humidity;BMP_temperature;BMP_pressure;BME280_temperature;BME280_humidity;BME280_pressure;Samples;Min_cycle;Max_cycle;Signal;HPM_P1;HPM_P2
2023/12/19 00:02:05;;;;;;;1.70;1.30;;;5.00;98.20;;;;;;5012926;28;20467;-82
2023/12/19 00:04:33;;;;;;;1.60;1.30;;;5.00;98.20;;;;;;5025364;28;20494;-82
2023/12/19 00:06:59;;;;;;;1.63;1.30;;;5.00;98.20;;;;;;5013559;28;20566;-82
2023/12/19 00:09:26;;;;;;;1.60;1.30;;;4.90;98.20;;;;;;5025573;28;20458;-82
2023/12/19 00:11:53;;;;;;;1.60;1.30;;;4.80;98.20;;;;;;5008432;28;20471;-84
2023/12/19 00:14:21;;;;;;;1.70;1.30;;;4.80;98.20;;;;;;5018850;28;20566;-83
2023/12/19 00:16:48;;;;;;;1.60;1.30;;;4.80;98.20;;;;;;5008726;28;20498;-80
2023/12/19 00:19:14;;;;;;;1.67;1.30;;;4.80;98.20;;;;;;5022231;28;20461;-80
2023/12/19 00:21:41;;;;;;;1.60;1.30;;;4.80;98.20;;;;;;5013778;28;20575;-80
2023/12/19 00:24:09;;;;;;;1.60;1.40;;;4.80;98.20;;;;;;5026358;28;23836;-80
2023/12/19 00:26:36;;;;;;;1.60;1.30;;;4.80;98.20;;;;;;5004526;28;20503;-80
2023/12/19 00:29:02;;;;;;;1.70;1.40;;;4.80;98.20;;;;;;5018035;28;20835;-80
2023/12/19 00:31:31;;;;;;;1.60;1.30;;;4.80;98.20;;;;;;5015689;28;20855;-80
2023/12/19 00:33:57;;;;;;;1.70;1.30;;;4.70;98.20;;;;;;5022452;28;20835;-80
2023/12/19 00:36:24;;;;;;;1.60;1.40;;;4.70;98.20;;;;;;5015032;28;20503;-79
2023/12/19 00:38:51;;;;;;;1.60;1.30;;;4.70;98.20;;;;;;5020653;28;20460;-79
2023/12/19 00:41:18;;;;;;;1.70;1.30;;;4.70;98.20;;;;;;5014664;28;21252;-81
2023/12/19 00:43:45;;;;;;;1.60;1.37;;;4.70;98.20;;;;;;5028037;28;20467;-82
2023/12/19 00:46:12;;;;;;;1.70;1.40;;;4.70;98.20;;;;;;5017774;28;21172;-82
2023/12/19 00:48:40;;;;;;;1.67;1.40;;;4.80;98.20;;;;;;5021311;28;20464;-82
2023/12/19 00:51:10;;;;;;;1.63;1.40;;;4.80;98.20;;;;;;5014653;28;20480;-82
2023/12/19 00:53:37;;;;;;;1.70;1.53;;;4.90;98.20;;;;;;5027359;28;20463;-82
2023/12/19 00:56:08;;;;;;;1.60;1.30;;;4.90;98.20;;;;;;5010922;28;20476;-82
2023/12/19 00:58:35;;;;;;;1.63;1.30;;;4.90;98.20;;;;;;5021593;28;20467;-82
2023/12/19 01:01:02;;;;;;;1.70;1.50;;;4.90;98.20;;;;;;5010973;28;20845;-82
2023/12/19 01:03:29;;;;;;;1.60;1.30;;;4.90;98.20;;;;;;5017867;28;20460;-82
2023/12/19 01:05:57;;;;;;;1.67;1.40;;;4.90;98.20;;;;;;5006315;28;20499;-82
2023/12/19 01:08:24;;;;;;;1.63;1.30;;;4.90;98.20;;;;;;5024118;28;20468;-81
2023/12/19 01:10:50;;;;;;;1.63;1.30;;;5.00;98.20;;;;;;5004052;28;20608;-81
2023/12/19 01:13:17;;;;;;;1.60;1.30;;;5.00;98.20;;;;;;5027622;28;20482;-81
2023/12/19 01:15:44;;;;;;;1.63;1.30;;;5.10;98.20;;;;;;5023489;28;20475;-81
2023/12/19 01:18:11;;;;;;;1.70;1.50;;;5.10;98.20;;;;;;4988160;28;20979;-81
2023/12/19 01:20:39;;;;;;;1.60;1.30;;;5.10;98.20;;;;;;5020449;28;20463;-81
2023/12/19 01:23:07;;;;;;;1.70;1.40;;;5.20;98.20;;;;;;5013682;28;20484;-81
2023/12/19 01:25:34;;;;;;;1.60;1.30;;;5.20;98.20;;;;;;5021081;28;20488;-81
2023/12/19 01:28:01;;;;;;;1.60;1.30;;;5.20;98.20;;;;;;5013418;28;20479;-81
2023/12/19 01:30:28;;;;;;;1.60;1.30;;;5.20;98.20;;;;;;5020312;28;20849;-82
2023/12/19 01:32:54;;;;;;;1.67;1.30;;;5.20;98.20;;;;;;5010563;28;20479;-81
2023/12/19 01:35:21;;;;;;;1.63;1.30;;;5.20;98.20;;;;;;5023065;28;20498;-80
2023/12/19 01:37:48;;;;;;;1.60;1.30;;;5.20;98.20;;;;;;5014202;28;20883;-81
2023/12/19 01:40:16;;;;;;;1.67;1.40;;;5.20;98.20;;;;;;5023564;28;20473;-82
2023/12/19 01:42:43;;;;;;;1.63;1.30;;;5.20;98.20;;;;;;5012985;28;20475;-81
2023/12/19 01:45:12;;;;;;;1.63;1.30;;;5.20;98.20;;;;;;5014809;28;20498;-81
2023/12/19 01:47:41;;;;;;;1.60;1.40;;;5.20;98.20;;;;;;5011731;28;21057;-80
2023/12/19 01:50:08;;;;;;;1.60;1.30;;;5.20;98.20;;;;;;5017981;28;20525;-82
2023/12/19 01:52:36;;;;;;;1.70;1.40;;;5.20;98.20;;;;;;5007548;28;20482;-82
2023/12/19 01:55:03;;;;;;;1.67;1.40;;;5.30;98.20;;;;;;5010373;28;20991;-82
2023/12/19 01:57:31;;;;;;;1.63;1.30;;;5.30;98.20;;;;;;5011853;28;20483;-81
2023/12/19 01:59:59;;;;;;;1.60;1.30;;;5.40;98.20;;;;;;5018476;28;20475;-82
2023/12/19 02:02:26;;;;;;;1.67;1.40;;;5.40;98.20;;;;;;5009325;28;20491;-81
2023/12/19 02:04:56;;;;;;;1.67;1.40;;;5.40;98.20;;;;;;5017520;28;20986;-82
2023/12/19 02:07:23;;;;;;;1.67;1.30;;;5.40;98.20;;;;;;5005974;28;20480;-82
2023/12/19 02:09:50;;;;;;;1.60;1.30;;;5.50;98.20;;;;;;5022762;28;20487;-82
2023/12/19 02:12:17;;;;;;;1.63;1.40;;;5.50;98.20;;;;;;5010932;28;20475;-82
2023/12/19 02:14:45;;;;;;;1.60;1.30;;;5.50;98.20;;;;;;5021696;28;20486;-82
2023/12/19 02:17:12;;;;;;;1.60;1.30;;;5.50;98.20;;;;;;5014746;28;21148;-81
2023/12/19 02:19:44;;;;;;;1.60;1.30;;;5.50;98.20;;;;;;5033810;28;20469;-82
2023/12/19 02:22:11;;;;;;;1.70;1.40;;;5.50;98.20;;;;;;5023027;28;20501;-82
2023/12/19 02:24:39;;;;;;;1.60;1.30;;;5.50;98.20;;;;;;5029262;28;20964;-82
2023/12/19 02:27:07;;;;;;;1.60;1.30;;;5.50;98.20;;;;;;5009512;28;20495;-82
2023/12/19 02:29:33;;;;;;;1.60;1.30;;;5.50;98.20;;;;;;5017492;28;21013;-82
2023/12/19 02:32:01;;;;;;;1.60;1.30;;;5.50;98.20;;;;;;5005778;28;20492;-82
2023/12/19 02:34:29;;;;;;;3.80;3.40;;;5.50;98.20;;;;;;5027543;28;20859;-81
2023/12/19 02:36:55;;;;;;;1.60;1.30;;;5.50;98.20;;;;;;5017122;28;20491;-82
2023/12/19 02:39:22;;;;;;;1.60;1.30;;;5.50;98.20;;;;;;5020112;28;20468;-82
2023/12/19 02:41:50;;;;;;;1.70;1.40;;;5.50;98.20;;;;;;5013159;28;20840;-81
2023/12/19 02:44:17;;;;;;;1.60;1.30;;;5.50;98.20;;;;;;5026336;28;20956;-81
2023/12/19 02:46:44;;;;;;;1.70;1.30;;;5.50;98.20;;;;;;5013915;28;20497;-82
2023/12/19 02:49:11;;;;;;;1.60;1.27;;;5.50;98.20;;;;;;5026356;28;20933;-81
2023/12/19 02:51:38;;;;;;;2.27;2.07;;;5.50;98.20;;;;;;5013055;28;20491;-81
2023/12/19 02:54:04;;;;;;;1.63;1.30;;;5.50;98.20;;;;;;5025662;28;20479;-81
2023/12/19 02:56:32;;;;;;;1.67;1.40;;;5.50;98.20;;;;;;5013394;28;20505;-81
2023/12/19 02:59:00;;;;;;;1.63;1.30;;;5.50;98.20;;;;;;5030054;28;20493;-81
2023/12/19 03:01:27;;;;;;;15.23;5.47;;;5.50;98.20;;;;;;5020803;28;20562;-81
2023/12/19 03:03:54;;;;;;;1.60;1.30;;;5.50;98.20;;;;;;5028306;28;20459;-81
2023/12/19 03:06:20;;;;;;;1.70;1.30;;;5.50;98.20;;;;;;5013054;23;21011;-81
2023/12/19 03:08:48;;;;;;;1.63;1.30;;;5.40;98.20;;;;;;5037259;28;20481;-81
2023/12/19 03:11:15;;;;;;;1.60;1.30;;;5.40;98.20;;;;;;5027788;28;20848;-81
2023/12/19 03:13:42;;;;;;;1.63;1.30;;;5.40;98.20;;;;;;5038965;28;20461;-81
2023/12/19 03:16:10;;;;;;;1.70;1.40;;;5.40;98.20;;;;;;5000709;28;20484;-81
2023/12/19 03:18:37;;;;;;;1.63;1.30;;;5.40;98.20;;;;;;5015905;28;20486;-81
2023/12/19 03:21:04;;;;;;;1.67;1.37;;;5.40;98.20;;;;;;5011639;28;20954;-82
2023/12/19 03:23:32;;;;;;;1.60;1.30;;;5.40;98.20;;;;;;5015945;28;20470;-81
2023/12/19 03:25:58;;;;;;;1.67;1.40;;;5.40;98.20;;;;;;5004804;28;20517;-83
2023/12/19 03:28:25;;;;;;;1.60;1.30;;;5.40;98.20;;;;;;5018381;28;20465;-82
2023/12/19 03:30:52;;;;;;;1.60;1.30;;;5.40;98.20;;;;;;5009537;28;20521;-82
2023/12/19 03:33:20;;;;;;;2.67;2.23;;;5.40;98.20;;;;;;5004531;28;20759;-82
2023/12/19 03:35:47;;;;;;;1.60;1.30;;;5.40;98.20;;;;;;5014645;28;21687;-82
2023/12/19 03:38:15;;;;;;;1.60;1.30;;;5.50;98.20;;;;;;5007568;28;20464;-82
2023/12/19 03:40:43;;;;;;;1.67;1.30;;;5.50;98.20;;;;;;5022942;28;20459;-82
2023/12/19 03:43:11;;;;;;;1.60;1.30;;;5.50;98.20;;;;;;4992014;28;20823;-82
2023/12/19 03:45:38;;;;;;;1.60;1.30;;;5.60;98.20;;;;;;5021324;28;20523;-81
2023/12/19 03:48:05;;;;;;;1.60;1.30;;;5.60;98.20;;;;;;4990288;28;20487;-81
2023/12/19 03:50:33;;;;;;;1.60;1.30;;;5.60;98.20;;;;;;5017548;28;20991;-82
2023/12/19 03:53:00;;;;;;;1.60;1.30;;;5.60;98.20;;;;;;4991849;28;20529;-81
2023/12/19 03:55:27;;;;;;;1.63;1.30;;;5.60;98.20;;;;;;5021582;28;20484;-84
2023/12/19 03:57:53;;;;;;;1.60;1.30;;;5.60;98.20;;;;;;5002301;28;20483;-83
2023/12/19 04:00:20;;;;;;;1.60;1.40;;;5.60;98.20;;;;;;5020155;28;20469;-82
2023/12/19 04:02:47;;;;;;;1.60;1.30;;;5.60;98.20;;;;;;4996171;28;20494;-82
2023/12/19 04:05:14;;;;;;;1.60;1.30;;;5.60;98.20;;;;;;5017452;28;20507;-81
2023/12/19 04:07:42;;;;;;;1.70;1.30;;;5.70;98.20;;;;;;4996946;28;20508;-82
2023/12/19 04:10:10;;;;;;;1.60;1.30;;;5.70;98.20;;;;;;5016768;28;20459;-82
2023/12/19 04:12:37;;;;;;;1.60;1.20;;;5.70;98.20;;;;;;5003202;28;20495;-82
2023/12/19 04:15:04;;;;;;;1.60;1.30;;;5.60;98.20;;;;;;5019238;28;20998;-82
2023/12/19 04:17:30;;;;;;;1.60;1.40;;;5.70;98.20;;;;;;4999269;28;20873;-82
2023/12/19 04:19:57;;;;;;;1.70;1.40;;;5.60;98.20;;;;;;5014183;28;20475;-81
2023/12/19 04:22:25;;;;;;;1.60;1.30;;;5.60;98.20;;;;;;4993794;28;20684;-81
2023/12/19 04:24:53;;;;;;;1.60;1.30;;;5.70;98.20;;;;;;5016105;28;20479;-82
2023/12/19 04:27:19;;;;;;;1.60;1.30;;;5.60;98.20;;;;;;4996894;28;20499;-81
2023/12/19 04:29:46;;;;;;;1.67;1.40;;;5.60;98.20;;;;;;5015739;28;20488;-81
2023/12/19 04:32:13;;;;;;;1.70;1.40;;;5.70;98.20;;;;;;4990498;28;20511;-81
2023/12/19 04:34:40;;;;;;;1.70;1.57;;;5.70;98.20;;;;;;5018967;28;20764;-82
2023/12/19 04:37:07;;;;;;;1.60;1.30;;;5.70;98.20;;;;;;4999783;28;20480;-82
2023/12/19 04:39:34;;;;;;;1.70;1.60;;;5.70;98.20;;;;;;5011084;28;20477;-81
2023/12/19 04:42:06;;;;;;;2.23;2.03;;;5.70;98.20;;;;;;4995932;28;20513;-79
2023/12/19 04:44:33;;;;;;;1.60;1.30;;;5.70;98.20;;;;;;5011830;28;20492;-82
2023/12/19 04:47:00;;;;;;;1.60;1.30;;;5.80;98.20;;;;;;5001111;28;20538;-81
2023/12/19 04:49:27;;;;;;;1.60;1.23;;;5.70;98.20;;;;;;5004740;28;20479;-81
2023/12/19 04:51:54;;;;;;;1.60;1.30;;;5.70;98.20;;;;;;5004617;28;20477;-80
2023/12/19 04:54:20;;;;;;;1.60;1.30;;;5.70;98.20;;;;;;5016982;28;21309;-82
2023/12/19 04:56:48;;;;;;;1.60;1.30;;;5.70;98.20;;;;;;5000599;28;20496;-81
2023/12/19 04:59:16;;;;;;;1.70;1.43;;;5.80;98.20;;;;;;5002461;28;20894;-82
2023/12/19 05:01:44;;;;;;;1.60;1.30;;;5.70;98.20;;;;;;5004875;28;21062;-81
2023/12/19 05:04:10;;;;;;;1.60;1.20;;;5.70;98.20;;;;;;5014345;28;20498;-80
2023/12/19 05:06:37;;;;;;;1.70;1.37;;;5.70;98.20;;;;;;5000908;28;20508;-82
2023/12/19 05:09:04;;;;;;;1.60;1.30;;;5.60;98.20;;;;;;5010887;28;20459;-81
2023/12/19 05:11:31;;;;;;;1.60;1.20;;;5.60;98.20;;;;;;4992252;28;20477;-81
2023/12/19 05:13:58;;;;;;;1.70;1.40;;;5.60;98.20;;;;;;5009322;28;20846;-79
2023/12/19 05:16:26;;;;;;;2.17;1.97;;;5.60;98.20;;;;;;4998108;28;20564;-80
2023/12/19 05:18:52;;;;;;;1.60;1.30;;;5.60;98.20;;;;;;5017518;28;20463;-81
2023/12/19 05:21:20;;;;;;;1.60;1.30;;;5.60;98.20;;;;;;5002397;28;20905;-81
2023/12/19 05:23:48;;;;;;;1.90;1.60;;;5.60;98.20;;;;;;5014780;28;20473;-81
2023/12/19 05:26:15;;;;;;;1.60;1.30;;;5.60;98.20;;;;;;5002135;28;20492;-82
2023/12/19 05:28:42;;;;;;;1.67;1.37;;;5.60;98.20;;;;;;5003487;28;20467;-81
2023/12/19 05:31:10;;;;;;;1.60;1.30;;;5.60;98.20;;;;;;4999606;28;20580;-82
2023/12/19 05:33:38;;;;;;;1.97;1.77;;;5.60;98.20;;;;;;4990534;28;20944;-82
2023/12/19 05:36:05;;;;;;;4.03;3.73;;;5.60;98.20;;;;;;4996473;28;20860;-81
2023/12/19 05:38:32;;;;;;;1.60;1.30;;;5.60;98.20;;;;;;5003470;28;20551;-80
2023/12/19 05:40:59;;;;;;;1.60;1.30;;;5.60;98.20;;;;;;4990756;28;20478;-80
2023/12/19 05:43:26;;;;;;;1.67;1.30;;;5.60;98.20;;;;;;5010820;28;20472;-80
2023/12/19 05:45:53;;;;;;;1.60;1.20;;;5.60;98.20;;;;;;4997347;28;20479;-80
2023/12/19 05:48:20;;;;;;;1.60;1.30;;;5.70;98.20;;;;;;5011538;28;20500;-80
2023/12/19 05:50:50;;;;;;;1.60;1.30;;;5.70;98.20;;;;;;4998416;28;20456;-80
2023/12/19 05:53:17;;;;;;;1.60;1.20;;;5.70;98.20;;;;;;5006215;28;20472;-80
2023/12/19 05:55:44;;;;;;;1.60;1.30;;;5.80;98.20;;;;;;5008782;28;20491;-80
2023/12/19 05:58:11;;;;;;;1.70;1.40;;;5.80;98.20;;;;;;5004326;28;20486;-81
2023/12/19 06:00:38;;;;;;;1.83;1.60;;;5.90;98.20;;;;;;5013028;28;20467;-81
2023/12/19 06:03:05;;;;;;;1.70;1.30;;;6.00;98.20;;;;;;4998961;28;20570;-81
2023/12/19 06:05:32;;;;;;;1.63;1.30;;;6.00;98.20;;;;;;5012495;28;20993;-79
2023/12/19 06:08:02;;;;;;;1.70;1.30;;;6.10;98.20;;;;;;4999664;28;20543;-78
2023/12/19 06:10:29;;;;;;;1.60;1.20;;;6.10;98.20;;;;;;5019578;28;20477;-81
2023/12/19 06:12:56;;;;;;;1.60;1.30;;;6.10;98.20;;;;;;4996866;28;20482;-81
2023/12/19 06:15:23;;;;;;;1.67;1.40;;;6.20;98.20;;;;;;5014712;28;20583;-78
2023/12/19 06:17:50;;;;;;;1.63;1.30;;;6.20;98.20;;;;;;5005392;28;20782;-80
2023/12/19 06:20:16;;;;;;;1.60;1.30;;;6.20;98.20;;;;;;5013326;28;21029;-80
2023/12/19 06:22:43;;;;;;;1.60;1.23;;;6.30;98.20;;;;;;5009189;28;20480;-80
2023/12/19 06:25:12;;;;;;;1.60;1.30;;;6.30;98.20;;;;;;5011698;28;20627;-80
2023/12/19 06:27:40;;;;;;;1.60;1.30;;;6.30;98.20;;;;;;5003472;28;20687;-80
2023/12/19 06:30:08;;;;;;;2.20;2.00;;;6.30;98.20;;;;;;5014360;28;20472;-82
2023/12/19 06:32:36;;;;;;;1.67;1.37;;;6.30;98.20;;;;;;5004901;28;20538;-79
2023/12/19 06:35:03;;;;;;;1.60;1.20;;;6.30;98.20;;;;;;5016459;28;20549;-81
2023/12/19 06:37:30;;;;;;;2.07;1.87;;;6.30;98.20;;;;;;5002161;28;20477;-79
2023/12/19 06:39:57;;;;;;;1.63;1.30;;;6.30;98.20;;;;;;5017103;28;20849;-82
2023/12/19 06:42:27;;;;;;;1.70;1.40;;;6.40;98.20;;;;;;5002558;28;20488;-82
2023/12/19 06:44:54;;;;;;;3.20;3.00;;;6.40;98.20;;;;;;5021152;28;20498;-82
2023/12/19 06:47:21;;;;;;;1.60;1.30;;;6.40;98.20;;;;;;5002472;28;20480;-82
2023/12/19 06:49:48;;;;;;;1.60;1.23;;;6.40;98.20;;;;;;5015649;28;20474;-80
2023/12/19 06:52:14;;;;;;;1.60;1.30;;;6.40;98.20;;;;;;5004976;28;20556;-82
2023/12/19 06:54:41;;;;;;;1.60;1.20;;;6.40;98.20;;;;;;5015897;28;20467;-83
2023/12/19 06:57:08;;;;;;;1.60;1.20;;;6.40;98.20;;;;;;5005213;28;20503;-82
2023/12/19 06:59:36;;;;;;;1.60;1.30;;;6.40;98.20;;;;;;5019202;28;20460;-82
2023/12/19 07:02:05;;;;;;;1.60;1.30;;;6.40;98.20;;;;;;5005097;28;20479;-82
2023/12/19 07:04:32;;;;;;;1.60;1.27;;;6.40;98.20;;;;;;5012610;28;20473;-82
2023/12/19 07:07:01;;;;;;;1.60;1.30;;;6.40;98.20;;;;;;5007416;28;20573;-82
2023/12/19 07:09:30;;;;;;;1.60;1.30;;;6.40;98.20;;;;;;5014577;28;20614;-83
2023/12/19 07:12:14;;;;;;;1.67;1.30;;;6.40;98.20;;;;;;5000285;28;20475;-81
2023/12/19 07:14:44;;;;;;;1.60;1.30;;;6.40;98.20;;;;;;5010662;28;20478;-83
2023/12/19 07:17:12;;;;;;;1.60;1.23;;;6.40;98.20;;;;;;5002638;28;20472;-81
2023/12/19 07:19:41;;;;;;;4.13;3.83;;;6.40;98.20;;;;;;5010482;28;20967;-82
2023/12/19 07:22:08;;;;;;;1.63;1.20;;;6.40;98.20;;;;;;5000202;28;21006;-82
2023/12/19 07:24:34;;;;;;;1.70;1.30;;;6.40;98.20;;;;;;5013260;28;20547;-82
2023/12/19 07:30:20;;;;;;;1.60;1.30;;;6.50;98.20;;;;;;5005652;28;20456;-81
2023/12/19 07:32:50;;;;;;;1.60;1.30;;;6.50;98.20;;;;;;4987019;28;20611;-82
2023/12/19 07:35:19;;;;;;;1.63;1.30;;;6.60;98.20;;;;;;5012763;28;20510;-82
2023/12/19 07:37:46;;;;;;;1.80;1.60;;;6.60;98.20;;;;;;5013327;28;20538;-81
2023/12/19 07:40:14;;;;;;;1.60;1.30;;;6.60;98.20;;;;;;5032342;28;20468;-82
2023/12/19 07:42:42;;;;;;;1.60;1.20;;;6.70;98.20;;;;;;5025244;28;20999;-81
2023/12/19 07:45:09;;;;;;;1.70;1.57;;;6.70;98.20;;;;;;5017082;28;20487;-83
2023/12/19 07:47:37;;;;;;;1.60;1.23;;;6.80;98.20;;;;;;5010650;28;20480;-83
2023/12/19 07:50:05;;;;;;;1.60;1.30;;;6.80;98.20;;;;;;5017329;28;20963;-83
2023/12/19 07:52:32;;;;;;;1.60;1.30;;;6.80;98.20;;;;;;4997438;28;20512;-84
2023/12/19 07:54:59;;;;;;;1.60;1.30;;;6.90;98.20;;;;;;5019050;28;20506;-83
2023/12/19 07:57:29;;;;;;;2.10;1.90;;;6.90;98.20;;;;;;5010980;28;20472;-82
2023/12/19 07:59:56;;;;;;;1.70;1.40;;;6.90;98.20;;;;;;5023499;28;20464;-86
2023/12/19 08:02:23;;;;;;;1.63;1.40;;;6.90;98.20;;;;;;5014570;28;21034;-81
2023/12/19 08:04:51;;;;;;;1.60;1.30;;;6.90;98.20;;;;;;5021528;28;20937;-84
2023/12/19 08:07:18;;;;;;;1.60;1.20;;;6.90;98.20;;;;;;5007924;28;20476;-81
2023/12/19 08:09:45;;;;;;;1.60;1.20;;;6.90;98.20;;;;;;5021624;28;20566;-83
2023/12/19 08:12:12;;;;;;;1.70;1.30;;;6.90;98.20;;;;;;5010615;28;20535;-83
2023/12/19 08:14:39;;;;;;;1.60;1.30;;;6.90;98.20;;;;;;5019261;28;20797;-81
2023/12/19 08:17:05;;;;;;;1.60;1.30;;;6.90;98.20;;;;;;5001502;28;20473;-84
2023/12/19 08:19:32;;;;;;;1.60;1.27;;;6.90;98.20;;;;;;5014327;28;20461;-82
2023/12/19 08:22:00;;;;;;;1.60;1.30;;;6.90;98.20;;;;;;5002003;28;20476;-82
2023/12/19 08:24:27;;;;;;;1.60;1.20;;;6.80;98.20;;;;;;5012135;28;20633;-82
2023/12/19 08:26:54;;;;;;;1.60;1.30;;;6.80;98.20;;;;;;5000364;28;20504;-83
2023/12/19 08:29:21;;;;;;;1.67;1.30;;;6.90;98.20;;;;;;5010282;28;20459;-80
2023/12/19 08:31:48;;;;;;;1.67;1.30;;;6.90;98.20;;;;;;5001877;28;20522;-83
2023/12/19 08:34:18;;;;;;;1.60;1.30;;;6.90;98.20;;;;;;5011846;28;20865;-83
2023/12/19 08:36:45;;;;;;;1.60;1.20;;;6.90;98.20;;;;;;5005577;28;20487;-82
2023/12/19 08:39:13;;;;;;;1.60;1.20;;;6.90;98.20;;;;;;5013077;28;20487;-81
2023/12/19 08:41:40;;;;;;;1.63;1.30;;;6.90;98.20;;;;;;4997598;28;20489;-83
2023/12/19 08:44:06;;;;;;;1.63;1.30;;;6.90;98.20;;;;;;5011100;28;20495;-82
2023/12/19 08:46:34;;;;;;;1.60;1.20;;;6.90;98.20;;;;;;5005168;28;20520;-81
2023/12/19 08:49:02;;;;;;;1.67;1.30;;;7.00;98.20;;;;;;5008248;28;20567;-82
2023/12/19 08:51:29;;;;;;;1.60;1.20;;;7.00;98.20;;;;;;5000274;28;20495;-83
2023/12/19 08:53:56;;;;;;;1.67;1.30;;;7.00;98.20;;;;;;5013620;28;20555;-84
2023/12/19 08:56:24;;;;;;;1.70;1.30;;;7.00;98.20;;;;;;4997300;28;20485;-84
2023/12/19 08:58:51;;;;;;;1.60;1.20;;;7.10;98.20;;;;;;5013086;28;20469;-83
2023/12/19 09:01:19;;;;;;;1.67;1.40;;;7.10;98.20;;;;;;5000540;28;20485;-84
2023/12/19 09:03:45;;;;;;;1.60;1.30;;;7.10;98.20;;;;;;5009380;28;20464;-82
2023/12/19 09:06:12;;;;;;;2.10;1.90;;;7.10;98.20;;;;;;4998939;28;20851;-82
2023/12/19 09:08:39;;;;;;;1.63;1.30;;;7.10;98.20;;;;;;5007001;28;20484;-82
2023/12/19 09:11:06;;;;;;;1.60;1.20;;;7.10;98.20;;;;;;4994603;28;20476;-81
2023/12/19 09:13:38;;;;;;;1.60;1.30;;;7.20;98.20;;;;;;5007289;28;20556;-80
2023/12/19 09:16:06;;;;;;;1.70;1.40;;;7.20;98.20;;;;;;4996645;28;20483;-81
2023/12/19 09:18:33;;;;;;;1.60;1.30;;;7.20;98.20;;;;;;5011649;28;20893;-81
2023/12/19 09:21:00;;;;;;;1.60;1.20;;;7.20;98.20;;;;;;4996764;28;20468;-82
2023/12/19 09:23:26;;;;;;;1.63;1.27;;;7.20;98.20;;;;;;5005089;28;20479;-82
2023/12/19 09:25:53;;;;;;;1.60;1.30;;;7.20;98.20;;;;;;4996594;28;20566;-82
2023/12/19 09:28:21;;;;;;;1.60;1.20;;;7.20;98.20;;;;;;5006548;28;20495;-82
2023/12/19 09:30:49;;;;;;;1.60;1.20;;;7.20;98.20;;;;;;5002676;28;20469;-82
2023/12/19 09:33:17;;;;;;;1.60;1.30;;;7.20;98.20;;;;;;5010132;28;20544;-82
2023/12/19 09:35:43;;;;;;;1.60;1.20;;;7.20;98.20;;;;;;5005745;28;20491;-82
2023/12/19 09:38:10;;;;;;;6.50;6.00;;;7.20;98.20;;;;;;4999889;28;20630;-79
2023/12/19 09:40:37;;;;;;;1.60;1.20;;;7.20;98.20;;;;;;5005914;28;20955;-80
2023/12/19 09:43:04;;;;;;;1.60;1.20;;;7.20;98.20;;;;;;5003298;28;20526;-81
2023/12/19 09:45:31;;;;;;;1.60;1.20;;;7.20;98.20;;;;;;5006397;28;20499;-81
2023/12/19 09:48:01;;;;;;;1.60;1.20;;;7.30;98.20;;;;;;4999418;28;20479;-82
2023/12/19 09:50:30;;;;;;;1.63;1.20;;;7.30;98.20;;;;;;5007269;28;20552;-82
2023/12/19 09:52:59;;;;;;;1.60;1.20;;;7.30;98.20;;;;;;4998948;28;20475;-82
2023/12/19 09:55:27;;;;;;;1.60;1.20;;;7.40;98.20;;;;;;5003425;28;20499;-82
2023/12/19 09:57:56;;;;;;;1.70;1.30;;;7.40;98.20;;;;;;5000914;28;20481;-82
2023/12/19 10:00:25;;;;;;;1.60;1.20;;;7.40;98.20;;;;;;5004496;28;20476;-82
2023/12/19 10:02:53;;;;;;;2.73;2.47;;;7.40;98.20;;;;;;5002340;28;20477;-80
2023/12/19 10:05:22;;;;;;;1.60;1.30;;;7.40;98.20;;;;;;5009600;28;20982;-81
2023/12/19 10:07:48;;;;;;;1.60;1.20;;;7.50;98.20;;;;;;5000731;28;20498;-82
2023/12/19 10:10:15;;;;;;;1.60;1.20;;;7.50;98.20;;;;;;5007309;28;20475;-83
2023/12/19 10:12:49;;;;;;;1.70;1.43;;;7.50;98.20;;;;;;4998617;28;20484;-81
2023/12/19 10:15:16;;;;;;;1.60;1.20;;;7.60;98.20;;;;;;5007391;28;20495;-81
2023/12/19 10:18:03;;;;;;;1.63;1.30;;;7.60;98.20;;;;;;4997032;28;20484;-82
2023/12/19 10:20:31;;;;;;;1.60;1.20;;;7.60;98.20;;;;;;5004056;28;20994;-81
2023/12/19 10:23:03;;;;;;;1.60;1.10;;;7.60;98.20;;;;;;4999224;28;20483;-83
2023/12/19 10:25:29;;;;;;;1.60;1.20;;;7.60;98.20;;;;;;5004933;28;20878;-80
2023/12/19 10:28:07;;;;;;;1.70;1.40;;;7.70;98.20;;;;;;5000322;28;20482;-80
2023/12/19 10:30:34;;;;;;;1.67;1.20;;;7.70;98.20;;;;;;5003835;28;20462;-80
2023/12/19 10:33:01;;;;;;;1.60;1.30;;;7.70;98.20;;;;;;4999905;28;20484;-81
2023/12/19 10:35:37;;;;;;;1.63;1.30;;;7.70;98.20;;;;;;5004071;28;20480;-83
2023/12/19 10:38:05;;;;;;;1.60;1.20;;;7.70;98.20;;;;;;4998283;28;20545;-83
2023/12/19 10:40:32;;;;;;;1.63;1.20;;;7.70;98.20;;;;;;5004608;28;20464;-83
2023/12/19 10:43:00;;;;;;;1.60;1.20;;;7.80;98.20;;;;;;4998778;28;20484;-83
2023/12/19 10:45:27;;;;;;;1.60;1.20;;;7.80;98.20;;;;;;5006401;28;21040;-82
2023/12/19 10:47:53;;;;;;;1.60;1.30;;;7.80;98.20;;;;;;5007597;28;20482;-80
2023/12/19 10:50:21;;;;;;;1.60;1.20;;;7.90;98.20;;;;;;5005965;28;20494;-84
2023/12/19 10:52:51;;;;;;;1.60;1.20;;;7.90;98.20;;;;;;4996966;28;20903;-82
2023/12/19 10:55:21;;;;;;;1.60;1.20;;;7.90;98.20;;;;;;5006621;28;20488;-81
2023/12/19 10:57:50;;;;;;;1.63;1.20;;;8.00;98.20;;;;;;4998729;28;20520;-81
2023/12/19 11:00:22;;;;;;;1.70;1.30;;;8.00;98.20;;;;;;5005333;28;20963;-80
2023/12/19 11:02:59;;;;;;;1.60;1.20;;;8.00;98.20;;;;;;4996676;28;21005;-82
2023/12/19 11:05:36;;;;;;;1.60;1.20;;;8.00;98.20;;;;;;5007201;28;20545;-82
2023/12/19 11:08:08;;;;;;;1.60;1.27;;;8.00;98.20;;;;;;4998413;28;20506;-83
2023/12/19 11:10:40;;;;;;;1.60;1.20;;;8.00;98.20;;;;;;5007253;28;20579;-83
2023/12/19 11:13:08;;;;;;;1.63;1.20;;;8.00;98.20;;;;;;4997271;28;20635;-83
2023/12/19 11:15:39;;;;;;;1.60;1.20;;;8.00;98.20;;;;;;5005065;28;20546;-82
2023/12/19 11:18:15;;;;;;;1.60;1.30;;;7.90;98.20;;;;;;4996592;28;20476;-82
2023/12/19 11:20:46;;;;;;;1.63;1.23;;;7.80;98.20;;;;;;5009927;28;20947;-81
2023/12/19 11:23:28;;;;;;;1.67;1.20;;;7.70;98.20;;;;;;4988633;28;20468;-81
2023/12/19 11:26:00;;;;;;;1.60;1.20;;;7.70;98.20;;;;;;4999943;28;20938;-81
2023/12/19 11:28:36;;;;;;;1.67;1.30;;;7.70;98.20;;;;;;5007648;28;20483;-83
2023/12/19 11:31:03;;;;;;;1.67;1.33;;;7.70;98.20;;;;;;5000020;28;20455;-83
2023/12/19 11:33:31;;;;;;;1.60;1.20;;;7.60;98.20;;;;;;4995431;28;20468;-82
2023/12/19 11:36:11;;;;;;;1.60;1.20;;;7.60;98.20;;;;;;4999006;28;20858;-82
2023/12/19 11:38:39;;;;;;;1.70;1.30;;;7.60;98.20;;;;;;4995215;28;20612;-83
2023/12/19 11:41:06;;;;;;;1.63;1.20;;;7.60;98.20;;;;;;4993162;28;20472;-81
2023/12/19 11:43:51;;;;;;;1.60;1.20;;;7.60;98.20;;;;;;5002490;28;20472;-80
2023/12/19 11:46:18;;;;;;;1.60;1.20;;;7.60;98.20;;;;;;4993261;28;21017;-83
2023/12/19 11:48:49;;;;;;;1.67;1.30;;;7.60;98.20;;;;;;5009089;28;20647;-82
2023/12/19 11:51:51;;;;;;;1.60;1.17;;;7.60;98.20;;;;;;4994927;28;20494;-83
2023/12/19 11:54:19;;;;;;;1.60;1.20;;;7.60;98.20;;;;;;5003763;28;20502;-83
2023/12/19 11:56:58;;;;;;;1.60;1.20;;;7.60;98.20;;;;;;4997604;28;20571;-84
2023/12/19 11:59:25;;;;;;;1.63;1.20;;;7.70;98.20;;;;;;5005535;28;20519;-81
2023/12/19 12:01:54;;;;;;;1.60;1.20;;;7.70;98.20;;;;;;4998279;28;20483;-83
2023/12/19 12:04:21;;;;;;;1.60;1.20;;;7.70;98.20;;;;;;5008071;28;20463;-83
2023/12/19 12:06:48;;;;;;;1.60;1.20;;;7.70;98.20;;;;;;5002734;28;21555;-82
2023/12/19 12:09:20;;;;;;;1.63;1.20;;;7.70;98.20;;;;;;5015845;28;20856;-83
2023/12/19 12:11:48;;;;;;;1.60;1.20;;;7.80;98.20;;;;;;4999469;28;20476;-84
2023/12/19 12:14:15;;;;;;;1.70;1.40;;;7.80;98.20;;;;;;5005107;28;20866;-82
2023/12/19 12:16:43;;;;;;;1.60;1.20;;;7.80;98.20;;;;;;4988765;28;20516;-83
2023/12/19 12:19:11;;;;;;;1.63;1.20;;;7.80;98.20;;;;;;5003279;28;20841;-83
2023/12/19 12:21:43;;;;;;;1.60;1.20;;;7.80;98.20;;;;;;4995691;28;20487;-83
2023/12/19 12:24:16;;;;;;;1.60;1.20;;;7.90;98.20;;;;;;5010161;28;20559;-83
2023/12/19 12:26:44;;;;;;;1.60;1.20;;;8.00;98.20;;;;;;4998457;28;20511;-84
2023/12/19 12:29:11;;;;;;;1.60;1.20;;;8.00;98.20;;;;;;5012500;28;20490;-83
2023/12/19 12:31:39;;;;;;;1.60;1.20;;;8.10;98.20;;;;;;4998614;28;20927;-83
2023/12/19 12:34:06;;;;;;;1.60;1.10;;;8.20;98.20;;;;;;5016336;28;20464;-84
2023/12/19 12:36:33;;;;;;;1.60;1.20;;;8.20;98.20;;;;;;5003442;28;20772;-82
2023/12/19 12:39:00;;;;;;;1.60;1.20;;;8.30;98.20;;;;;;5011205;28;20490;-81
2023/12/19 12:41:29;;;;;;;1.60;1.20;;;8.30;98.20;;;;;;5005466;28;20842;-82
2023/12/19 12:44:03;;;;;;;1.63;1.30;;;8.30;98.20;;;;;;5011520;28;20469;-83
2023/12/19 12:46:30;;;;;;;1.60;1.20;;;8.40;98.20;;;;;;5008447;28;20479;-84
2023/12/19 12:49:05;;;;;;;2.27;2.07;;;8.40;98.20;;;;;;5007281;28;20480;-84
2023/12/19 12:51:36;;;;;;;1.60;1.20;;;8.40;98.20;;;;;;4995731;28;20488;-82
2023/12/19 12:54:03;;;;;;;1.60;1.20;;;8.50;98.20;;;;;;5011028;28;20456;-81
2023/12/19 12:56:31;;;;;;;1.70;1.30;;;8.50;98.20;;;;;;5000096;28;20662;-82
2023/12/19 12:59:08;;;;;;;1.60;1.10;;;8.50;98.20;;;;;;5012417;28;20467;-84
2023/12/19 13:01:36;;;;;;;1.60;1.20;;;8.60;98.20;;;;;;5003756;28;20480;-82
2023/12/19 13:04:03;;;;;;;1.60;1.20;;;8.60;98.20;;;;;;5002910;28;20475;-83
2023/12/19 13:06:30;;;;;;;1.60;1.10;;;8.60;98.20;;;;;;4994097;28;20499;-81